sensor_id;sensor_type;location;lat;lon;timestamp;P1;durP1;ratioP1;P2;durP2;ratioP2
4365;SDS011;2196;47.422;9.656;2022-07-06T00:00:50;2.83;;;2.73;;
4365;SDS011;2196;47.422;9.656;2022-07-06T00:03:17;2.97;;;2.80;;
4365;SDS011;2196;47.422;9.656;2022-07-06T00:05:44;3.20;;;3.10;;
4365;SDS011;2196;47.422;9.656;2022-07-06T00:08:11;2.90;;;2.90;;
4365;SDS011;2196;47.422;9.656;2022-07-06T00:10:39;2.90;;;2.70;;
4365;SDS011;2196;47.422;9.656;2022-07-06T00:13:06;2.90;;;2.80;;
4365;SDS011;2196;47.422;9.656;2022-07-06T00:15:33;3.50;;;3.40;;
4365;SDS011;2196;47.422;9.656;2022-07-06T00:18:00;2.77;;;2.57;;
4365;SDS011;2196;47.422;9.656;2022-07-06T00:20:27;3.70;;;3.60;;
4365;SDS011;2196;47.422;9.656;2022-07-06T00:22:54;3.37;;;3.27;;
4365;SDS011;2196;47.422;9.656;2022-07-06T00:25:21;2.90;;;2.80;;
4365;SDS011;2196;47.422;9.656;2022-07-06T00:27:49;2.40;;;2.30;;
4365;SDS011;2196;47.422;9.656;2022-07-06T00:30:16;2.97;;;2.93;;
4365;SDS011;2196;47.422;9.656;2022-07-06T00:32:43;2.97;;;2.77;;
4365;SDS011;2196;47.422;9.656;2022-07-06T00:35:10;2.53;;;2.30;;
4365;SDS011;2196;47.422;9.656;2022-07-06T00:37:37;3.57;;;3.30;;
4365;SDS011;2196;47.422;9.656;2022-07-06T00:40:04;2.90;;;2.80;;
4365;SDS011;2196;47.422;9.656;2022-07-06T00:42:39;2.50;;;2.40;;
4365;SDS011;2196;47.422;9.656;2022-07-06T00:45:09;2.70;;;2.60;;
4365;SDS011;2196;47.422;9.656;2022-07-06T00:47:37;2.17;;;2.17;;
4365;SDS011;2196;47.422;9.656;2022-07-06T00:50:04;2.33;;;2.33;;
4365;SDS011;2196;47.422;9.656;2022-07-06T00:52:47;2.90;;;2.80;;
4365;SDS011;2196;47.422;9.656;2022-07-06T00:55:16;2.57;;;2.47;;
4365;SDS011;2196;47.422;9.656;2022-07-06T00:57:45;2.87;;;2.77;;
4365;SDS011;2196;47.422;9.656;2022-07-06T01:00:14;2.67;;;2.50;;
4365;SDS011;2196;47.422;9.656;2022-07-06T01:02:43;2.43;;;2.33;;
4365;SDS011;2196;47.422;9.656;2022-07-06T01:05:12;2.60;;;2.50;;
4365;SDS011;2196;47.422;9.656;2022-07-06T01:07:40;2.40;;;2.30;;
4365;SDS011;2196;47.422;9.656;2022-07-06T01:10:10;2.37;;;2.27;;
4365;SDS011;2196;47.422;9.656;2022-07-06T01:12:38;1.80;;;1.77;;
4365;SDS011;2196;47.422;9.656;2022-07-06T01:15:07;2.40;;;2.30;;
4365;SDS011;2196;47.422;9.656;2022-07-06T01:17:37;3.33;;;2.60;;
4365;SDS011;2196;47.422;9.656;2022-07-06T01:20:09;2.13;;;2.03;;
4365;SDS011;2196;47.422;9.656;2022-07-06T01:22:36;2.60;;;2.43;;
4365;SDS011;2196;47.422;9.656;2022-07-06T01:25:04;2.60;;;2.40;;
4365;SDS011;2196;47.422;9.656;2022-07-06T01:27:32;2.90;;;2.73;;
4365;SDS011;2196;47.422;9.656;2022-07-06T01:30:02;3.13;;;2.93;;
4365;SDS011;2196;47.422;9.656;2022-07-06T01:32:29;2.67;;;2.67;;
4365;SDS011;2196;47.422;9.656;2022-07-06T01:34:56;2.33;;;2.13;;
4365;SDS011;2196;47.422;9.656;2022-07-06T01:37:25;2.60;;;2.60;;
4365;SDS011;2196;47.422;9.656;2022-07-06T01:39:52;2.43;;;2.43;;
4365;SDS011;2196;47.422;9.656;2022-07-06T01:42:18;3.40;;;3.17;;
4365;SDS011;2196;47.422;9.656;2022-07-06T01:44:45;2.60;;;2.60;;
4365;SDS011;2196;47.422;9.656;2022-07-06T01:47:12;3.00;;;2.83;;
4365;SDS011;2196;47.422;9.656;2022-07-06T01:49:39;3.13;;;2.90;;
4365;SDS011;2196;47.422;9.656;2022-07-06T01:52:06;2.67;;;2.03;;
4365;SDS011;2196;47.422;9.656;2022-07-06T01:54:34;3.20;;;3.10;;
4365;SDS011;2196;47.422;9.656;2022-07-06T01:57:04;3.23;;;3.13;;
4365;SDS011;2196;47.422;9.656;2022-07-06T01:59:31;3.47;;;3.27;;
4365;SDS011;2196;47.422;9.656;2022-07-06T02:01:59;4.30;;;4.00;;
4365;SDS011;2196;47.422;9.656;2022-07-06T02:04:26;3.13;;;3.03;;
4365;SDS011;2196;47.422;9.656;2022-07-06T02:06:53;3.37;;;3.20;;
4365;SDS011;2196;47.422;9.656;2022-07-06T02:09:20;4.63;;;4.43;;
4365;SDS011;2196;47.422;9.656;2022-07-06T02:11:48;4.23;;;4.13;;
4365;SDS011;2196;47.422;9.656;2022-07-06T02:14:15;3.87;;;3.57;;
4365;SDS011;2196;47.422;9.656;2022-07-06T02:16:42;4.70;;;4.27;;
4365;SDS011;2196;47.422;9.656;2022-07-06T02:19:09;3.63;;;3.53;;
4365;SDS011;2196;47.422;9.656;2022-07-06T02:21:36;3.60;;;3.50;;
4365;SDS011;2196;47.422;9.656;2022-07-06T02:24:04;5.43;;;4.50;;
4365;SDS011;2196;47.422;9.656;2022-07-06T02:26:31;4.70;;;4.40;;
4365;SDS011;2196;47.422;9.656;2022-07-06T02:28:59;3.90;;;3.80;;
4365;SDS011;2196;47.422;9.656;2022-07-06T02:31:26;4.13;;;3.80;;
4365;SDS011;2196;47.422;9.656;2022-07-06T02:33:53;4.00;;;3.90;;
4365;SDS011;2196;47.422;9.656;2022-07-06T02:36:20;4.13;;;3.83;;
4365;SDS011;2196;47.422;9.656;2022-07-06T02:38:47;3.37;;;3.17;;
4365;SDS011;2196;47.422;9.656;2022-07-06T02:41:14;3.50;;;3.23;;
4365;SDS011;2196;47.422;9.656;2022-07-06T02:43:43;3.70;;;3.57;;
4365;SDS011;2196;47.422;9.656;2022-07-06T02:46:12;3.53;;;3.33;;
4365;SDS011;2196;47.422;9.656;2022-07-06T02:48:39;3.70;;;3.50;;
4365;SDS011;2196;47.422;9.656;2022-07-06T02:51:06;3.77;;;3.67;;
4365;SDS011;2196;47.422;9.656;2022-07-06T02:53:33;4.57;;;4.30;;
4365;SDS011;2196;47.422;9.656;2022-07-06T02:56:00;4.40;;;4.17;;
4365;SDS011;2196;47.422;9.656;2022-07-06T02:58:30;3.83;;;3.40;;
4365;SDS011;2196;47.422;9.656;2022-07-06T03:00:56;3.90;;;3.70;;
4365;SDS011;2196;47.422;9.656;2022-07-06T03:03:25;3.63;;;3.43;;
4365;SDS011;2196;47.422;9.656;2022-07-06T03:05:52;4.00;;;3.83;;
4365;SDS011;2196;47.422;9.656;2022-07-06T03:08:19;3.17;;;3.07;;
4365;SDS011;2196;47.422;9.656;2022-07-06T03:10:46;4.03;;;3.83;;
4365;SDS011;2196;47.422;9.656;2022-07-06T03:13:13;4.27;;;4.07;;
4365;SDS011;2196;47.422;9.656;2022-07-06T03:15:40;4.10;;;4.00;;
4365;SDS011;2196;47.422;9.656;2022-07-06T03:18:07;4.43;;;4.03;;
4365;SDS011;2196;47.422;9.656;2022-07-06T03:20:35;3.83;;;3.70;;
4365;SDS011;2196;47.422;9.656;2022-07-06T03:23:02;4.97;;;4.57;;
4365;SDS011;2196;47.422;9.656;2022-07-06T03:25:29;3.97;;;3.73;;
4365;SDS011;2196;47.422;9.656;2022-07-06T03:27:57;4.57;;;4.20;;
4365;SDS011;2196;47.422;9.656;2022-07-06T03:30:24;4.67;;;4.47;;
4365;SDS011;2196;47.422;9.656;2022-07-06T03:32:52;4.27;;;4.03;;
4365;SDS011;2196;47.422;9.656;2022-07-06T03:35:19;4.20;;;3.90;;
4365;SDS011;2196;47.422;9.656;2022-07-06T03:37:47;4.00;;;3.90;;
4365;SDS011;2196;47.422;9.656;2022-07-06T03:40:14;3.57;;;3.37;;
4365;SDS011;2196;47.422;9.656;2022-07-06T03:42:41;3.80;;;3.60;;
4365;SDS011;2196;47.422;9.656;2022-07-06T03:45:08;4.57;;;4.40;;
4365;SDS011;2196;47.422;9.656;2022-07-06T03:47:36;3.50;;;3.40;;
4365;SDS011;2196;47.422;9.656;2022-07-06T03:50:03;4.13;;;3.93;;
4365;SDS011;2196;47.422;9.656;2022-07-06T03:52:31;4.47;;;4.23;;
4365;SDS011;2196;47.422;9.656;2022-07-06T03:55:00;3.90;;;3.70;;
4365;SDS011;2196;47.422;9.656;2022-07-06T03:57:27;3.90;;;3.70;;
4365;SDS011;2196;47.422;9.656;2022-07-06T03:59:54;4.07;;;3.90;;
4365;SDS011;2196;47.422;9.656;2022-07-06T04:02:21;4.40;;;4.13;;
4365;SDS011;2196;47.422;9.656;2022-07-06T04:04:48;3.73;;;3.50;;
4365;SDS011;2196;47.422;9.656;2022-07-06T04:07:16;5.27;;;4.87;;
4365;SDS011;2196;47.422;9.656;2022-07-06T04:09:43;4.27;;;4.07;;
4365;SDS011;2196;47.422;9.656;2022-07-06T04:12:11;4.10;;;3.80;;
4365;SDS011;2196;47.422;9.656;2022-07-06T04:14:38;4.20;;;4.10;;
4365;SDS011;2196;47.422;9.656;2022-07-06T04:17:05;4.17;;;4.07;;
4365;SDS011;2196;47.422;9.656;2022-07-06T04:19:46;5.20;;;4.90;;
4365;SDS011;2196;47.422;9.656;2022-07-06T04:22:13;4.63;;;4.33;;
4365;SDS011;2196;47.422;9.656;2022-07-06T04:24:40;5.13;;;4.73;;
4365;SDS011;2196;47.422;9.656;2022-07-06T04:27:07;3.63;;;3.53;;
4365;SDS011;2196;47.422;9.656;2022-07-06T04:29:35;5.03;;;4.83;;
4365;SDS011;2196;47.422;9.656;2022-07-06T04:32:03;4.97;;;4.77;;
4365;SDS011;2196;47.422;9.656;2022-07-06T04:34:31;4.30;;;4.20;;
4365;SDS011;2196;47.422;9.656;2022-07-06T04:36:58;5.50;;;5.20;;
4365;SDS011;2196;47.422;9.656;2022-07-06T04:39:25;5.60;;;5.33;;
4365;SDS011;2196;47.422;9.656;2022-07-06T04:41:52;5.83;;;5.63;;
4365;SDS011;2196;47.422;9.656;2022-07-06T04:44:19;6.67;;;6.23;;
4365;SDS011;2196;47.422;9.656;2022-07-06T04:46:48;5.63;;;5.33;;
4365;SDS011;2196;47.422;9.656;2022-07-06T04:49:15;5.80;;;5.50;;
4365;SDS011;2196;47.422;9.656;2022-07-06T04:51:42;6.33;;;6.03;;
4365;SDS011;2196;47.422;9.656;2022-07-06T04:54:09;7.33;;;7.03;;
4365;SDS011;2196;47.422;9.656;2022-07-06T04:56:36;8.57;;;7.80;;
4365;SDS011;2196;47.422;9.656;2022-07-06T04:59:03;6.90;;;6.47;;
4365;SDS011;2196;47.422;9.656;2022-07-06T05:01:30;6.70;;;6.47;;
4365;SDS011;2196;47.422;9.656;2022-07-06T05:03:58;5.90;;;5.60;;
4365;SDS011;2196;47.422;9.656;2022-07-06T05:06:25;6.57;;;6.17;;
4365;SDS011;2196;47.422;9.656;2022-07-06T05:08:52;6.07;;;5.70;;
4365;SDS011;2196;47.422;9.656;2022-07-06T05:11:19;5.87;;;5.53;;
4365;SDS011;2196;47.422;9.656;2022-07-06T05:13:46;5.60;;;5.40;;
4365;SDS011;2196;47.422;9.656;2022-07-06T05:16:13;5.50;;;5.10;;
4365;SDS011;2196;47.422;9.656;2022-07-06T05:18:40;4.27;;;4.07;;
4365;SDS011;2196;47.422;9.656;2022-07-06T05:21:08;4.07;;;3.87;;
4365;SDS011;2196;47.422;9.656;2022-07-06T05:23:36;4.33;;;4.00;;
4365;SDS011;2196;47.422;9.656;2022-07-06T05:26:03;4.00;;;3.50;;
4365;SDS011;2196;47.422;9.656;2022-07-06T05:28:30;2.70;;;2.50;;
4365;SDS011;2196;47.422;9.656;2022-07-06T05:30:57;2.47;;;2.47;;
4365;SDS011;2196;47.422;9.656;2022-07-06T05:33:24;3.33;;;3.13;;
4365;SDS011;2196;47.422;9.656;2022-07-06T05:35:54;3.00;;;2.90;;
4365;SDS011;2196;47.422;9.656;2022-07-06T05:38:22;3.13;;;3.10;;
4365;SDS011;2196;47.422;9.656;2022-07-06T05:40:49;3.47;;;3.30;;
4365;SDS011;2196;47.422;9.656;2022-07-06T05:43:17;2.77;;;2.67;;
4365;SDS011;2196;47.422;9.656;2022-07-06T05:45:44;2.63;;;2.43;;
4365;SDS011;2196;47.422;9.656;2022-07-06T05:48:11;5.90;;;3.60;;
4365;SDS011;2196;47.422;9.656;2022-07-06T05:50:55;2.37;;;2.37;;
4365;SDS011;2196;47.422;9.656;2022-07-06T05:53:23;3.63;;;2.40;;
4365;SDS011;2196;47.422;9.656;2022-07-06T05:55:50;3.40;;;3.20;;
4365;SDS011;2196;47.422;9.656;2022-07-06T05:58:17;2.45;;;2.33;;
4365;SDS011;2196;47.422;9.656;2022-07-06T06:00:44;4.83;;;2.83;;
4365;SDS011;2196;47.422;9.656;2022-07-06T06:03:12;3.53;;;2.90;;
4365;SDS011;2196;47.422;9.656;2022-07-06T06:05:39;3.20;;;3.00;;
4365;SDS011;2196;47.422;9.656;2022-07-06T06:08:05;3.63;;;3.30;;
4365;SDS011;2196;47.422;9.656;2022-07-06T06:10:34;3.03;;;2.85;;
4365;SDS011;2196;47.422;9.656;2022-07-06T06:13:01;2.72;;;2.63;;
4365;SDS011;2196;47.422;9.656;2022-07-06T06:15:28;2.92;;;2.83;;
4365;SDS011;2196;47.422;9.656;2022-07-06T06:17:55;3.28;;;3.08;;
4365;SDS011;2196;47.422;9.656;2022-07-06T06:20:22;2.75;;;2.55;;
4365;SDS011;2196;47.422;9.656;2022-07-06T06:22:50;3.47;;;3.17;;
4365;SDS011;2196;47.422;9.656;2022-07-06T06:25:18;2.60;;;2.42;;
4365;SDS011;2196;47.422;9.656;2022-07-06T06:27:47;4.75;;;2.75;;
4365;SDS011;2196;47.422;9.656;2022-07-06T06:30:14;3.00;;;2.85;;
4365;SDS011;2196;47.422;9.656;2022-07-06T06:32:41;1.95;;;1.85;;
4365;SDS011;2196;47.422;9.656;2022-07-06T06:35:08;2.33;;;2.30;;
4365;SDS011;2196;47.422;9.656;2022-07-06T06:37:35;2.25;;;2.22;;
4365;SDS011;2196;47.422;9.656;2022-07-06T06:40:03;2.47;;;2.33;;
4365;SDS011;2196;47.422;9.656;2022-07-06T06:42:32;3.33;;;3.13;;
4365;SDS011;2196;47.422;9.656;2022-07-06T06:45:03;2.35;;;2.28;;
4365;SDS011;2196;47.422;9.656;2022-07-06T06:47:31;3.05;;;2.95;;
4365;SDS011;2196;47.422;9.656;2022-07-06T06:49:58;2.58;;;2.40;;
4365;SDS011;2196;47.422;9.656;2022-07-06T06:52:24;3.00;;;2.72;;
4365;SDS011;2196;47.422;9.656;2022-07-06T06:54:51;3.60;;;3.33;;
4365;SDS011;2196;47.422;9.656;2022-07-06T06:57:18;2.75;;;2.45;;
4365;SDS011;2196;47.422;9.656;2022-07-06T06:59:45;2.88;;;2.67;;
4365;SDS011;2196;47.422;9.656;2022-07-06T07:02:14;2.33;;;2.17;;
4365;SDS011;2196;47.422;9.656;2022-07-06T07:04:41;2.97;;;2.78;;
4365;SDS011;2196;47.422;9.656;2022-07-06T07:07:08;3.08;;;2.55;;
4365;SDS011;2196;47.422;9.656;2022-07-06T07:09:35;2.97;;;2.38;;
4365;SDS011;2196;47.422;9.656;2022-07-06T07:12:02;3.75;;;2.47;;
4365;SDS011;2196;47.422;9.656;2022-07-06T07:14:30;2.70;;;2.50;;
4365;SDS011;2196;47.422;9.656;2022-07-06T07:16:57;2.92;;;1.77;;
4365;SDS011;2196;47.422;9.656;2022-07-06T07:19:25;2.08;;;1.98;;
4365;SDS011;2196;47.422;9.656;2022-07-06T07:21:52;1.77;;;1.67;;
4365;SDS011;2196;47.422;9.656;2022-07-06T07:24:19;2.47;;;1.83;;
4365;SDS011;2196;47.422;9.656;2022-07-06T07:26:46;2.85;;;2.30;;
4365;SDS011;2196;47.422;9.656;2022-07-06T07:29:13;2.67;;;2.58;;
4365;SDS011;2196;47.422;9.656;2022-07-06T07:31:40;3.63;;;2.42;;
4365;SDS011;2196;47.422;9.656;2022-07-06T07:34:07;2.83;;;2.63;;
4365;SDS011;2196;47.422;9.656;2022-07-06T07:36:35;2.22;;;2.22;;
4365;SDS011;2196;47.422;9.656;2022-07-06T07:39:02;2.92;;;2.72;;
4365;SDS011;2196;47.422;9.656;2022-07-06T07:41:30;2.88;;;2.15;;
4365;SDS011;2196;47.422;9.656;2022-07-06T07:43:57;4.85;;;2.08;;
4365;SDS011;2196;47.422;9.656;2022-07-06T07:46:24;2.47;;;2.38;;
4365;SDS011;2196;47.422;9.656;2022-07-06T07:48:51;2.33;;;2.15;;
4365;SDS011;2196;47.422;9.656;2022-07-06T07:51:18;2.67;;;2.47;;
4365;SDS011;2196;47.422;9.656;2022-07-06T07:53:47;1.83;;;1.83;;
4365;SDS011;2196;47.422;9.656;2022-07-06T07:56:14;2.35;;;1.80;;
4365;SDS011;2196;47.422;9.656;2022-07-06T07:58:41;1.80;;;1.70;;
4365;SDS011;2196;47.422;9.656;2022-07-06T08:01:08;2.55;;;2.22;;
4365;SDS011;2196;47.422;9.656;2022-07-06T08:03:36;2.38;;;2.05;;
4365;SDS011;2196;47.422;9.656;2022-07-06T08:06:03;2.00;;;2.00;;
4365;SDS011;2196;47.422;9.656;2022-07-06T08:08:30;2.75;;;2.55;;
4365;SDS011;2196;47.422;9.656;2022-07-06T08:10:58;1.80;;;1.70;;
4365;SDS011;2196;47.422;9.656;2022-07-06T08:13:25;2.28;;;2.28;;
4365;SDS011;2196;47.422;9.656;2022-07-06T08:15:52;2.70;;;1.85;;
4365;SDS011;2196;47.422;9.656;2022-07-06T08:18:19;2.17;;;2.08;;
4365;SDS011;2196;47.422;9.656;2022-07-06T08:20:46;3.67;;;2.67;;
4365;SDS011;2196;47.422;9.656;2022-07-06T08:23:13;1.90;;;1.77;;
4365;SDS011;2196;47.422;9.656;2022-07-06T08:25:40;2.60;;;2.40;;
4365;SDS011;2196;47.422;9.656;2022-07-06T08:28:09;2.53;;;2.17;;
4365;SDS011;2196;47.422;9.656;2022-07-06T08:30:36;4.55;;;3.72;;
4365;SDS011;2196;47.422;9.656;2022-07-06T08:33:03;3.40;;;3.05;;
4365;SDS011;2196;47.422;9.656;2022-07-06T08:35:30;9.43;;;3.67;;
4365;SDS011;2196;47.422;9.656;2022-07-06T08:37:57;2.63;;;2.38;;
4365;SDS011;2196;47.422;9.656;2022-07-06T08:40:24;3.20;;;2.95;;
4365;SDS011;2196;47.422;9.656;2022-07-06T08:42:55;2.40;;;2.22;;
4365;SDS011;2196;47.422;9.656;2022-07-06T08:45:25;3.15;;;3.03;;
4365;SDS011;2196;47.422;9.656;2022-07-06T08:47:53;4.05;;;3.20;;
4365;SDS011;2196;47.422;9.656;2022-07-06T08:50:21;4.88;;;3.55;;
4365;SDS011;2196;47.422;9.656;2022-07-06T08:52:48;4.13;;;2.63;;
4365;SDS011;2196;47.422;9.656;2022-07-06T08:55:16;2.80;;;2.63;;
4365;SDS011;2196;47.422;9.656;2022-07-06T08:57:44;4.35;;;2.95;;
4365;SDS011;2196;47.422;9.656;2022-07-06T09:00:13;5.28;;;2.50;;
4365;SDS011;2196;47.422;9.656;2022-07-06T09:02:42;2.55;;;2.45;;
4365;SDS011;2196;47.422;9.656;2022-07-06T09:05:10;2.63;;;2.42;;
4365;SDS011;2196;47.422;9.656;2022-07-06T09:07:41;2.97;;;2.78;;
4365;SDS011;2196;47.422;9.656;2022-07-06T09:10:08;4.22;;;2.92;;
4365;SDS011;2196;47.422;9.656;2022-07-06T09:12:35;4.18;;;3.78;;
4365;SDS011;2196;47.422;9.656;2022-07-06T09:15:03;3.53;;;3.03;;
4365;SDS011;2196;47.422;9.656;2022-07-06T09:17:30;2.63;;;2.42;;
4365;SDS011;2196;47.422;9.656;2022-07-06T09:19:58;3.42;;;3.03;;
4365;SDS011;2196;47.422;9.656;2022-07-06T09:22:26;3.20;;;2.97;;
4365;SDS011;2196;47.422;9.656;2022-07-06T09:25:01;2.17;;;2.17;;
4365;SDS011;2196;47.422;9.656;2022-07-06T09:27:29;2.15;;;2.13;;
4365;SDS011;2196;47.422;9.656;2022-07-06T09:29:59;2.35;;;2.35;;
4365;SDS011;2196;47.422;9.656;2022-07-06T09:32:27;3.17;;;2.97;;
4365;SDS011;2196;47.422;9.656;2022-07-06T09:34:54;2.90;;;2.80;;
4365;SDS011;2196;47.422;9.656;2022-07-06T09:37:22;3.35;;;2.92;;
4365;SDS011;2196;47.422;9.656;2022-07-06T09:39:49;2.75;;;2.53;;
4365;SDS011;2196;47.422;9.656;2022-07-06T09:42:16;3.22;;;2.92;;
4365;SDS011;2196;47.422;9.656;2022-07-06T09:44:51;2.75;;;2.58;;
4365;SDS011;2196;47.422;9.656;2022-07-06T09:47:19;2.25;;;2.15;;
4365;SDS011;2196;47.422;9.656;2022-07-06T09:49:46;2.05;;;1.98;;
4365;SDS011;2196;47.422;9.656;2022-07-06T09:52:14;2.03;;;1.80;;
4365;SDS011;2196;47.422;9.656;2022-07-06T09:54:43;2.20;;;2.10;;
4365;SDS011;2196;47.422;9.656;2022-07-06T09:57:15;2.50;;;2.40;;
4365;SDS011;2196;47.422;9.656;2022-07-06T09:59:42;2.15;;;1.60;;
4365;SDS011;2196;47.422;9.656;2022-07-06T10:02:16;2.08;;;1.88;;
4365;SDS011;2196;47.422;9.656;2022-07-06T10:04:44;2.58;;;2.55;;
4365;SDS011;2196;47.422;9.656;2022-07-06T10:07:11;2.15;;;1.95;;
4365;SDS011;2196;47.422;9.656;2022-07-06T10:09:39;1.88;;;1.88;;
4365;SDS011;2196;47.422;9.656;2022-07-06T10:12:09;4.53;;;2.05;;
4365;SDS011;2196;47.422;9.656;2022-07-06T10:14:38;2.30;;;2.13;;
4365;SDS011;2196;47.422;9.656;2022-07-06T10:17:07;2.72;;;2.55;;
4365;SDS011;2196;47.422;9.656;2022-07-06T10:19:34;2.22;;;2.22;;
4365;SDS011;2196;47.422;9.656;2022-07-06T10:22:02;2.90;;;2.25;;
4365;SDS011;2196;47.422;9.656;2022-07-06T10:24:31;2.55;;;2.33;;
4365;SDS011;2196;47.422;9.656;2022-07-06T10:26:59;3.45;;;2.50;;
4365;SDS011;2196;47.422;9.656;2022-07-06T10:29:27;2.15;;;1.85;;
4365;SDS011;2196;47.422;9.656;2022-07-06T10:31:56;2.90;;;2.22;;
4365;SDS011;2196;47.422;9.656;2022-07-06T10:34:23;2.97;;;1.95;;
4365;SDS011;2196;47.422;9.656;2022-07-06T10:36:52;2.65;;;2.45;;
4365;SDS011;2196;47.422;9.656;2022-07-06T10:39:31;1.77;;;1.67;;
4365;SDS011;2196;47.422;9.656;2022-07-06T10:45:18;1.70;;;1.60;;
4365;SDS011;2196;47.422;9.656;2022-07-06T10:47:47;2.42;;;2.22;;
4365;SDS011;2196;47.422;9.656;2022-07-06T10:50:34;1.65;;;1.55;;
4365;SDS011;2196;47.422;9.656;2022-07-06T10:53:02;2.38;;;1.75;;
4365;SDS011;2196;47.422;9.656;2022-07-06T10:55:38;1.60;;;1.55;;
4365;SDS011;2196;47.422;9.656;2022-07-06T10:58:06;1.77;;;1.67;;
4365;SDS011;2196;47.422;9.656;2022-07-06T11:03:32;2.50;;;1.63;;
4365;SDS011;2196;47.422;9.656;2022-07-06T11:06:01;3.97;;;1.50;;
4365;SDS011;2196;47.422;9.656;2022-07-06T11:11:37;2.08;;;1.98;;
4365;SDS011;2196;47.422;9.656;2022-07-06T11:14:07;1.20;;;1.20;;
4365;SDS011;2196;47.422;9.656;2022-07-06T11:16:38;1.83;;;1.83;;
4365;SDS011;2196;47.422;9.656;2022-07-06T11:19:06;1.65;;;1.38;;
4365;SDS011;2196;47.422;9.656;2022-07-06T11:21:36;2.00;;;1.60;;
4365;SDS011;2196;47.422;9.656;2022-07-06T11:24:11;3.00;;;1.90;;
4365;SDS011;2196;47.422;9.656;2022-07-06T11:26:39;2.00;;;1.53;;
4365;SDS011;2196;47.422;9.656;2022-07-06T11:29:10;1.42;;;1.40;;
4365;SDS011;2196;47.422;9.656;2022-07-06T11:31:39;2.00;;;1.90;;
4365;SDS011;2196;47.422;9.656;2022-07-06T11:34:07;1.53;;;1.40;;
4365;SDS011;2196;47.422;9.656;2022-07-06T11:36:37;1.55;;;1.55;;
4365;SDS011;2196;47.422;9.656;2022-07-06T11:39:04;1.77;;;1.63;;
4365;SDS011;2196;47.422;9.656;2022-07-06T11:41:31;1.63;;;1.63;;
4365;SDS011;2196;47.422;9.656;2022-07-06T11:43:59;2.33;;;1.30;;
4365;SDS011;2196;47.422;9.656;2022-07-06T11:46:27;1.20;;;1.20;;
4365;SDS011;2196;47.422;9.656;2022-07-06T11:48:57;1.87;;;1.77;;
4365;SDS011;2196;47.422;9.656;2022-07-06T11:51:25;1.37;;;1.37;;
4365;SDS011;2196;47.422;9.656;2022-07-06T11:53:53;1.73;;;1.73;;
4365;SDS011;2196;47.422;9.656;2022-07-06T11:56:21;1.83;;;1.83;;
4365;SDS011;2196;47.422;9.656;2022-07-06T11:58:52;3.50;;;1.40;;
4365;SDS011;2196;47.422;9.656;2022-07-06T12:01:20;1.17;;;1.15;;
4365;SDS011;2196;47.422;9.656;2022-07-06T12:03:48;0.90;;;0.90;;
4365;SDS011;2196;47.422;9.656;2022-07-06T12:06:18;1.38;;;0.93;;
4365;SDS011;2196;47.422;9.656;2022-07-06T12:08:47;1.03;;;0.93;;
4365;SDS011;2196;47.422;9.656;2022-07-06T12:11:22;0.93;;;0.93;;
4365;SDS011;2196;47.422;9.656;2022-07-06T12:13:51;3.23;;;0.87;;
4365;SDS011;2196;47.422;9.656;2022-07-06T12:16:19;1.70;;;1.00;;
4365;SDS011;2196;47.422;9.656;2022-07-06T12:18:49;0.80;;;0.80;;
4365;SDS011;2196;47.422;9.656;2022-07-06T12:21:18;1.20;;;0.70;;
4365;SDS011;2196;47.422;9.656;2022-07-06T12:23:47;1.30;;;1.03;;
4365;SDS011;2196;47.422;9.656;2022-07-06T12:26:16;1.40;;;1.13;;
4365;SDS011;2196;47.422;9.656;2022-07-06T12:28:44;2.17;;;1.00;;
4365;SDS011;2196;47.422;9.656;2022-07-06T12:33:58;1.30;;;1.00;;
4365;SDS011;2196;47.422;9.656;2022-07-06T12:36:27;3.10;;;1.33;;
4365;SDS011;2196;47.422;9.656;2022-07-06T12:38:54;1.57;;;1.07;;
4365;SDS011;2196;47.422;9.656;2022-07-06T12:41:28;1.63;;;1.10;;
4365;SDS011;2196;47.422;9.656;2022-07-06T12:44:00;1.20;;;1.10;;
4365;SDS011;2196;47.422;9.656;2022-07-06T12:46:33;2.30;;;1.00;;
4365;SDS011;2196;47.422;9.656;2022-07-06T12:49:02;1.00;;;0.90;;
4365;SDS011;2196;47.422;9.656;2022-07-06T12:54:40;1.00;;;1.00;;
4365;SDS011;2196;47.422;9.656;2022-07-06T12:57:09;2.33;;;1.00;;
4365;SDS011;2196;47.422;9.656;2022-07-06T12:59:39;0.80;;;0.80;;
4365;SDS011;2196;47.422;9.656;2022-07-06T13:02:07;1.30;;;0.80;;
4365;SDS011;2196;47.422;9.656;2022-07-06T13:04:36;1.00;;;1.00;;
4365;SDS011;2196;47.422;9.656;2022-07-06T13:07:03;0.83;;;0.80;;
4365;SDS011;2196;47.422;9.656;2022-07-06T13:09:32;1.20;;;1.03;;
4365;SDS011;2196;47.422;9.656;2022-07-06T13:11:59;0.97;;;0.97;;
4365;SDS011;2196;47.422;9.656;2022-07-06T13:14:26;1.70;;;1.10;;
4365;SDS011;2196;47.422;9.656;2022-07-06T13:16:53;2.33;;;1.10;;
4365;SDS011;2196;47.422;9.656;2022-07-06T13:19:20;1.00;;;1.00;;
4365;SDS011;2196;47.422;9.656;2022-07-06T13:21:47;2.13;;;1.20;;
4365;SDS011;2196;47.422;9.656;2022-07-06T13:24:15;1.30;;;1.07;;
4365;SDS011;2196;47.422;9.656;2022-07-06T13:26:43;1.97;;;1.07;;
4365;SDS011;2196;47.422;9.656;2022-07-06T13:29:11;1.00;;;0.90;;
4365;SDS011;2196;47.422;9.656;2022-07-06T13:31:38;1.73;;;1.00;;
4365;SDS011;2196;47.422;9.656;2022-07-06T13:34:06;2.53;;;0.83;;
4365;SDS011;2196;47.422;9.656;2022-07-06T13:36:34;2.00;;;0.80;;
4365;SDS011;2196;47.422;9.656;2022-07-06T13:39:02;0.70;;;0.70;;
4365;SDS011;2196;47.422;9.656;2022-07-06T13:41:29;0.80;;;0.80;;
4365;SDS011;2196;47.422;9.656;2022-07-06T13:43:58;2.83;;;0.80;;
4365;SDS011;2196;47.422;9.656;2022-07-06T13:46:26;1.27;;;1.00;;
4365;SDS011;2196;47.422;9.656;2022-07-06T13:48:53;1.63;;;1.30;;
4365;SDS011;2196;47.422;9.656;2022-07-06T13:51:21;0.90;;;0.90;;
4365;SDS011;2196;47.422;9.656;2022-07-06T13:53:48;0.90;;;0.87;;
4365;SDS011;2196;47.422;9.656;2022-07-06T13:56:16;1.47;;;0.80;;
4365;SDS011;2196;47.422;9.656;2022-07-06T13:58:43;0.80;;;0.80;;
4365;SDS011;2196;47.422;9.656;2022-07-06T14:01:12;0.80;;;0.80;;
4365;SDS011;2196;47.422;9.656;2022-07-06T14:03:39;1.30;;;1.07;;
4365;SDS011;2196;47.422;9.656;2022-07-06T14:06:06;1.87;;;1.17;;
4365;SDS011;2196;47.422;9.656;2022-07-06T14:08:34;0.93;;;0.93;;
4365;SDS011;2196;47.422;9.656;2022-07-06T14:11:02;1.63;;;1.03;;
4365;SDS011;2196;47.422;9.656;2022-07-06T14:13:30;1.73;;;1.20;;
4365;SDS011;2196;47.422;9.656;2022-07-06T14:15:58;1.93;;;0.90;;
4365;SDS011;2196;47.422;9.656;2022-07-06T14:18:27;0.97;;;0.97;;
4365;SDS011;2196;47.422;9.656;2022-07-06T14:20:54;0.97;;;0.90;;
4365;SDS011;2196;47.422;9.656;2022-07-06T14:23:21;5.10;;;1.47;;
4365;SDS011;2196;47.422;9.656;2022-07-06T14:25:49;1.77;;;1.20;;
4365;SDS011;2196;47.422;9.656;2022-07-06T14:28:16;1.37;;;1.27;;
4365;SDS011;2196;47.422;9.656;2022-07-06T14:30:44;2.43;;;1.63;;
4365;SDS011;2196;47.422;9.656;2022-07-06T14:33:13;1.60;;;1.60;;
4365;SDS011;2196;47.422;9.656;2022-07-06T14:35:42;1.57;;;1.47;;
4365;SDS011;2196;47.422;9.656;2022-07-06T14:38:13;1.37;;;1.10;;
4365;SDS011;2196;47.422;9.656;2022-07-06T14:40:40;1.10;;;1.00;;
4365;SDS011;2196;47.422;9.656;2022-07-06T14:43:08;1.87;;;1.07;;
4365;SDS011;2196;47.422;9.656;2022-07-06T14:45:36;2.87;;;0.90;;
4365;SDS011;2196;47.422;9.656;2022-07-06T14:48:03;1.60;;;1.10;;
4365;SDS011;2196;47.422;9.656;2022-07-06T14:50:31;4.43;;;1.07;;
4365;SDS011;2196;47.422;9.656;2022-07-06T14:53:01;1.90;;;1.47;;
4365;SDS011;2196;47.422;9.656;2022-07-06T14:55:28;1.00;;;0.90;;
4365;SDS011;2196;47.422;9.656;2022-07-06T14:57:55;1.90;;;1.48;;
4365;SDS011;2196;47.422;9.656;2022-07-06T15:00:22;2.20;;;1.13;;
4365;SDS011;2196;47.422;9.656;2022-07-06T15:02:49;1.85;;;1.20;;
4365;SDS011;2196;47.422;9.656;2022-07-06T15:05:16;1.70;;;0.93;;
4365;SDS011;2196;47.422;9.656;2022-07-06T15:07:43;1.40;;;1.10;;
4365;SDS011;2196;47.422;9.656;2022-07-06T15:10:11;1.33;;;1.23;;
4365;SDS011;2196;47.422;9.656;2022-07-06T15:12:38;2.77;;;1.40;;
4365;SDS011;2196;47.422;9.656;2022-07-06T15:15:06;1.27;;;1.27;;
4365;SDS011;2196;47.422;9.656;2022-07-06T15:17:33;1.27;;;1.20;;
4365;SDS011;2196;47.422;9.656;2022-07-06T15:20:00;1.50;;;1.40;;
4365;SDS011;2196;47.422;9.656;2022-07-06T15:22:27;1.20;;;1.00;;
4365;SDS011;2196;47.422;9.656;2022-07-06T15:24:54;2.27;;;1.10;;
4365;SDS011;2196;47.422;9.656;2022-07-06T15:27:22;4.97;;;1.17;;
4365;SDS011;2196;47.422;9.656;2022-07-06T15:29:49;1.10;;;1.10;;
4365;SDS011;2196;47.422;9.656;2022-07-06T15:32:16;1.97;;;1.87;;
4365;SDS011;2196;47.422;9.656;2022-07-06T15:34:43;1.33;;;1.33;;